Time,TemperatureF,DewpointF,PressureIn,WindDirection,WindDirectionDegrees,WindSpeedMPH,WindSpeedGustMPH,Humidity,HourlyPrecipIn,Conditions,Clouds,dailyrainin,SoftwareType,DateUTC
2014-12-17 00:04:00,36.2,35.9,29.83,ENE,75,0.0,1.0,99,0.00,,,0.00,WUHU216DAVISVP2,2014-12-17 05:04:00,
2014-12-17 00:19:00,36.3,36.0,29.82,ENE,75,0.0,1.0,99,0.00,,,0.00,WUHU216DAVISVP2,2014-12-17 05:19:00,
2014-12-17 00:34:00,36.3,36.0,29.81,ENE,75,0.0,1.0,99,0.00,,,0.00,WUHU216DAVISVP2,2014-12-17 05:34:00,
2014-12-17 00:49:00,36.2,35.9,29.81,ENE,75,0.0,1.0,99,0.00,,,0.00,WUHU216DAVISVP2,2014-12-17 05:49:00,
2014-12-17 01:04:00,36.1,35.8,29.81,ENE,75,0.0,1.0,99,0.00,,,0.00,WUHU216DAVISVP2,2014-12-17 06:04:00,
2014-12-17 01:19:00,36.0,35.7,29.80,ENE,75,0.0,1.0,99,0.00,,,0.00,WUHU216DAVISVP2,2014-12-17 06:19:00,
2014-12-17 01:34:00,35.9,35.6,29.81,ENE,75,0.0,1.0,99,0.00,,,0.00,WUHU216DAVISVP2,2014-12-17 06:34:00,
2014-12-17 01:49:00,35.8,35.5,29.80,ENE,75,0.0,0.0,99,0.00,,,0.00,WUHU216DAVISVP2,2014-12-17 06:49:00,
2014-12-17 02:04:00,35.9,35.6,29.80,ENE,75,0.0,1.0,99,0.00,,,0.00,WUHU216DAVISVP2,2014-12-17 07:04:00,
2014-12-17 02:19:00,35.5,35.0,29.80,ENE,75,0.0,0.0,98,0.00,,,0.00,WUHU216DAVISVP2,2014-12-17 07:19:00,
2014-12-17 02:34:00,35.1,34.6,29.80,ENE,75,0.0,1.0,98,0.00,,,0.00,WUHU216DAVISVP2,2014-12-17 07:34:00,
2014-12-17 02:49:00,35.2,34.9,29.80,ENE,75,0.0,1.0,99,0.00,,,0.00,WUHU216DAVISVP2,2014-12-17 07:49:00,
2014-12-17 03:04:00,35.0,34.7,29.80,ENE,75,0.0,1.0,99,0.00,,,0.00,WUHU216DAVISVP2,2014-12-17 08:04:00,
2014-12-17 03:19:00,34.7,34.4,29.79,ENE,75,0.0,1.0,99,0.00,,,0.00,WUHU216DAVISVP2,2014-12-17 08:19:00,
2014-12-17 03:34:00,34.5,34.2,29.80,SW,219,0.0,1.0,99,0.00,,,0.00,WUHU216DAVISVP2,2014-12-17 08:34:00,
2014-12-17 03:49:00,34.9,34.6,29.80,SW,232,0.0,1.0,99,0.00,,,0.00,WUHU216DAVISVP2,2014-12-17 08:49:00,
2014-12-17 04:05:00,35.2,34.9,29.80,SW,233,0.0,0.0,99,0.00,,,0.00,WUHU216DAVISVP2,2014-12-17 09:05:00,
2014-12-17 04:20:00,35.2,34.9,29.79,SW,233,0.0,0.0,99,0.00,,,0.00,WUHU216DAVISVP2,2014-12-17 09:20:00,
2014-12-17 04:35:00,34.6,34.3,29.79,SW,233,0.0,1.0,99,0.00,,,0.00,WUHU216DAVISVP2,2014-12-17 09:35:00,
2014-12-17 04:50:00,34.5,34.2,29.79,SW,233,0.0,1.0,99,0.00,,,0.00,WUHU216DAVISVP2,2014-12-17 09:50:00,
2014-12-17 05:05:00,34.7,34.4,29.78,SW,233,0.0,0.0,99,0.00,,,0.00,WUHU216DAVISVP2,2014-12-17 10:05:00,
2014-12-17 05:20:00,34.9,34.6,29.78,SW,233,1.0,1.0,99,0.00,,,0.00,WUHU216DAVISVP2,2014-12-17 10:20:00,
2014-12-17 05:35:00,34.9,34.6,29.79,SW,230,0.0,1.0,99,0.00,,,0.00,WUHU216DAVISVP2,2014-12-17 10:35:00,
2014-12-17 05:50:00,34.8,34.5,29.79,SSW,197,0.0,1.0,99,0.00,,,0.00,WUHU216DAVISVP2,2014-12-17 10:50:00,
2014-12-17 06:05:00,35.0,34.7,29.79,SSW,200,0.0,1.0,99,0.00,,,0.00,WUHU216DAVISVP2,2014-12-17 11:05:00,
2014-12-17 06:20:00,35.3,35.0,29.79,SSW,200,0.0,0.0,99,0.00,,,0.00,WUHU216DAVISVP2,2014-12-17 11:20:00,
2014-12-17 06:35:00,35.2,34.9,29.79,SSW,200,0.0,0.0,99,0.00,,,0.00,WUHU216DAVISVP2,2014-12-17 11:35:00,
2014-12-17 06:50:00,35.7,35.4,29.79,SSW,200,0.0,0.0,99,0.00,,,0.00,WUHU216DAVISVP2,2014-12-17 11:50:00,
2014-12-17 07:05:00,35.5,35.2,29.79,SSW,200,0.0,0.0,99,0.00,,,0.00,WUHU216DAVISVP2,2014-12-17 12:05:00,
2014-12-17 07:20:00,35.4,35.1,29.79,SSW,198,0.0,1.0,99,0.00,,,0.00,WUHU216DAVISVP2,2014-12-17 12:20:00,
2014-12-17 07:35:00,34.8,34.5,29.79,SW,221,0.0,1.0,99,0.00,,,0.00,WUHU216DAVISVP2,2014-12-17 12:35:00,
2014-12-17 07:50:00,34.7,34.4,29.80,SW,221,0.0,1.0,99,0.00,,,0.00,WUHU216DAVISVP2,2014-12-17 12:50:00,
2014-12-17 08:05:00,35.2,34.9,29.79,SW,220,0.0,1.0,99,0.00,,,0.00,WUHU216DAVISVP2,2014-12-17 13:05:00,
2014-12-17 08:20:00,35.3,35.0,29.79,SSW,205,0.0,1.0,99,0.00,,,0.00,WUHU216DAVISVP2,2014-12-17 13:20:00,
2014-12-17 08:35:00,35.5,35.2,29.79,SSW,205,0.0,0.0,99,0.00,,,0.00,WUHU216DAVISVP2,2014-12-17 13:35:00,
2014-12-17 08:50:00,35.6,35.3,29.80,SSW,205,0.0,0.0,99,0.00,,,0.00,WUHU216DAVISVP2,2014-12-17 13:50:00,
2014-12-17 09:05:00,35.7,35.4,29.80,SSW,205,0.0,0.0,99,0.00,,,0.00,WUHU216DAVISVP2,2014-12-17 14:05:00,
2014-12-17 09:20:00,35.9,35.6,29.80,SSW,205,0.0,0.0,99,0.00,,,0.00,WUHU216DAVISVP2,2014-12-17 14:20:00,
2014-12-17 09:35:00,36.1,35.8,29.80,SSW,205,0.0,0.0,99,0.00,,,0.00,WUHU216DAVISVP2,2014-12-17 14:35:00,
2014-12-17 09:50:00,36.1,35.8,29.80,SSW,205,0.0,0.0,99,0.00,,,0.00,WUHU216DAVISVP2,2014-12-17 14:50:00,
2014-12-17 10:05:00,36.2,35.9,29.79,SSW,205,0.0,0.0,99,0.00,,,0.00,WUHU216DAVISVP2,2014-12-17 15:05:00,
2014-12-17 10:20:00,36.0,35.7,29.79,SW,225,0.0,1.0,99,0.00,,,0.00,WUHU216DAVISVP2,2014-12-17 15:20:00,
2014-12-17 10:35:00,35.9,35.6,29.79,SW,229,0.0,1.0,99,0.00,,,0.00,WUHU216DAVISVP2,2014-12-17 15:35:00,
2014-12-17 10:50:00,36.1,35.8,29.78,SW,229,1.0,1.0,99,0.00,,,0.00,WUHU216DAVISVP2,2014-12-17 15:50:00,
2014-12-17 11:05:00,36.4,36.1,29.77,WSW,241,1.0,2.0,99,0.00,,,0.00,WUHU216DAVISVP2,2014-12-17 16:05:00,
2014-12-17 11:20:00,36.3,36.0,29.77,WSW,243,0.0,1.0,99,0.00,,,0.00,WUHU216DAVISVP2,2014-12-17 16:20:00,
2014-12-17 11:35:00,36.8,36.5,29.76,West,263,0.0,2.0,99,0.00,,,0.00,WUHU216DAVISVP2,2014-12-17 16:35:00,
2014-12-17 11:50:00,37.6,37.3,29.76,WNW,283,1.0,2.0,99,0.00,,,0.00,WUHU216DAVISVP2,2014-12-17 16:50:00,
2014-12-17 12:05:00,37.9,37.6,29.75,WNW,284,2.0,5.0,99,0.00,,,0.00,WUHU216DAVISVP2,2014-12-17 17:05:00,
2014-12-17 12:20:00,38.2,37.9,29.75,West,272,1.0,5.0,99,0.00,,,0.00,WUHU216DAVISVP2,2014-12-17 17:20:00,
2014-12-17 12:35:00,38.3,38.0,29.74,West,265,4.0,4.0,99,0.00,,,0.00,WUHU216DAVISVP2,2014-12-17 17:35:00,
2014-12-17 12:50:00,39.1,38.8,29.74,WNW,292,4.0,5.0,99,0.00,,,0.00,WUHU216DAVISVP2,2014-12-17 17:50:00,
2014-12-17 13:05:00,40.2,39.9,29.74,NW,312,8.0,10.0,99,0.00,,,0.00,WUHU216DAVISVP2,2014-12-17 18:05:00,
2014-12-17 13:20:00,40.7,39.6,29.74,West,278,11.0,16.0,96,0.00,,,0.00,WUHU216DAVISVP2,2014-12-17 18:20:00,
2014-12-17 13:35:00,40.7,38.5,29.75,WNW,293,6.0,16.0,92,0.00,,,0.00,WUHU216DAVISVP2,2014-12-17 18:35:00,
2014-12-17 13:50:00,40.5,38.0,29.75,NW,316,7.0,14.0,91,0.00,,,0.00,WUHU216DAVISVP2,2014-12-17 18:50:00,
2014-12-17 14:05:00,40.3,38.1,29.75,NW,316,7.0,12.0,92,0.00,,,0.00,WUHU216DAVISVP2,2014-12-17 19:05:00,
2014-12-17 14:20:00,39.9,37.7,29.76,NW,326,8.0,13.0,92,0.00,,,0.00,WUHU216DAVISVP2,2014-12-17 19:20:00,
2014-12-17 14:35:00,39.5,37.0,29.77,WNW,295,6.0,15.0,91,0.00,,,0.00,WUHU216DAVISVP2,2014-12-17 19:35:00,
2014-12-17 14:50:00,39.0,36.0,29.77,NW,322,8.0,19.0,89,0.00,,,0.00,WUHU216DAVISVP2,2014-12-17 19:50:00,
2014-12-17 15:05:00,38.7,35.4,29.78,NW,321,8.0,14.0,88,0.00,,,0.00,WUHU216DAVISVP2,2014-12-17 20:05:00,
2014-12-17 15:20:00,38.5,35.2,29.78,WNW,299,6.0,14.0,88,0.00,,,0.00,WUHU216DAVISVP2,2014-12-17 20:20:00,
2014-12-17 15:35:00,38.1,35.4,29.78,WNW,284,6.0,15.0,90,0.00,,,0.00,WUHU216DAVISVP2,2014-12-17 20:35:00,
2014-12-17 15:50:00,37.6,35.4,29.79,NW,305,7.0,15.0,92,0.00,,,0.00,WUHU216DAVISVP2,2014-12-17 20:50:00,
2014-12-17 16:05:00,37.3,35.1,29.79,NNW,329,8.0,15.0,92,0.00,,,0.00,WUHU216DAVISVP2,2014-12-17 21:05:00,
2014-12-17 16:20:00,37.1,34.9,29.79,WNW,299,10.0,14.0,92,0.00,,,0.00,WUHU216DAVISVP2,2014-12-17 21:20:00,
2014-12-17 16:35:00,36.7,34.0,29.80,WNW,300,13.0,19.0,90,0.00,,,0.00,WUHU216DAVISVP2,2014-12-17 21:35:00,
2014-12-17 16:50:00,36.2,33.5,29.80,NW,304,11.0,20.0,90,0.00,,,0.00,WUHU216DAVISVP2,2014-12-17 21:50:00,
2014-12-17 17:05:00,35.8,33.1,29.81,NW,308,8.0,20.0,90,0.00,,,0.00,WUHU216DAVISVP2,2014-12-17 22:05:00,
2014-12-17 17:20:00,35.6,32.9,29.81,NW,308,10.0,18.0,90,0.00,,,0.00,WUHU216DAVISVP2,2014-12-17 22:20:00,
2014-12-17 17:35:00,35.3,32.9,29.81,NW,320,7.0,19.0,91,0.00,,,0.00,WUHU216DAVISVP2,2014-12-17 22:35:00,
2014-12-17 17:50:00,34.9,32.8,29.82,WNW,296,7.0,21.0,92,0.00,,,0.00,WUHU216DAVISVP2,2014-12-17 22:50:00,
2014-12-17 18:05:00,34.7,32.6,29.82,NW,304,6.0,17.0,92,0.00,,,0.00,WUHU216DAVISVP2,2014-12-17 23:05:00,
2014-12-17 18:20:00,34.6,32.5,29.82,NW,306,12.0,19.0,92,0.00,,,0.00,WUHU216DAVISVP2,2014-12-17 23:20:00,
2014-12-17 18:35:00,34.5,32.1,29.82,WNW,283,11.0,18.0,91,0.00,,,0.00,WUHU216DAVISVP2,2014-12-17 23:35:00,
2014-12-17 18:50:00,34.2,32.1,29.82,WNW,294,6.0,15.0,92,0.00,,,0.00,WUHU216DAVISVP2,2014-12-17 23:50:00,
2014-12-17 19:05:00,34.2,31.8,29.82,WNW,300,8.0,16.0,91,0.00,,,0.00,WUHU216DAVISVP2,2014-12-18 00:05:00,
2014-12-17 19:20:00,34.3,31.9,29.82,NW,323,7.0,16.0,91,0.00,,,0.00,WUHU216DAVISVP2,2014-12-18 00:20:00,
2014-12-17 19:35:00,34.1,31.7,29.81,WNW,302,7.0,15.0,91,0.00,,,0.00,WUHU216DAVISVP2,2014-12-18 00:35:00,
2014-12-17 19:50:00,34.1,31.7,29.81,NW,319,11.0,14.0,91,0.00,,,0.00,WUHU216DAVISVP2,2014-12-18 00:50:00,
2014-12-17 20:05:00,33.9,31.5,29.81,NW,305,11.0,14.0,91,0.00,,,0.00,WUHU216DAVISVP2,2014-12-18 01:05:00,
2014-12-17 20:20:00,34.0,31.6,29.82,WNW,293,5.0,15.0,91,0.00,,,0.00,WUHU216DAVISVP2,2014-12-18 01:20:00,
2014-12-17 20:35:00,34.0,31.6,29.82,WNW,300,13.0,13.0,91,0.00,,,0.00,WUHU216DAVISVP2,2014-12-18 01:35:00,
2014-12-17 20:50:00,34.1,31.7,29.82,West,278,7.0,15.0,91,0.00,,,0.00,WUHU216DAVISVP2,2014-12-18 01:50:00,